createdAt,value
2019-03-30T03:07:22.172Z,21.2
2019-03-30T03:08:12.284Z,21.2
2019-03-30T03:09:02.642Z,21.2
2019-03-30T03:09:52.051Z,21.2
2019-03-30T03:10:42.694Z,21.2
2019-03-30T03:17:23.167Z,21.1
2019-03-30T03:18:13.381Z,21.1
2019-03-30T03:23:13.261Z,21.2
2019-03-30T03:24:03.382Z,21.2
2019-03-30T03:24:53.143Z,21.3
2019-03-30T03:25:42.979Z,21.2
2019-03-30T03:26:33.113Z,21.3
2019-03-30T03:27:23.348Z,21.3
2019-03-30T03:28:13.888Z,21.3
2019-03-30T03:29:03.642Z,21.3
2019-03-30T03:29:53.573Z,21.3
2019-03-30T03:30:44.173Z,21.3
2019-03-30T03:31:34.153Z,21.3
2019-03-30T03:32:23.567Z,21.3
2019-03-30T03:33:14.453Z,21.3
2019-03-30T03:34:04.889Z,21.3
2019-03-30T03:34:54.532Z,21.3
2019-03-30T03:35:44.416Z,21.3
2019-03-30T03:36:33.935Z,21.3
2019-03-30T03:37:23.685Z,21.3
2019-03-30T03:38:14.082Z,21.3
2019-03-30T03:39:04.493Z,21.3
2019-03-30T03:39:54.251Z,21.3
2019-03-30T03:40:44.867Z,21.3
2019-03-30T03:41:34.976Z,21.3
2019-03-30T03:42:24.765Z,21.3
2019-03-30T03:43:14.430Z,21.3
2019-03-30T03:44:04.484Z,21.3
2019-03-30T03:44:54.313Z,21.2
2019-03-30T03:45:45.267Z,21.3
2019-03-30T03:46:34.068Z,21.2
2019-03-30T03:47:24.673Z,21.2
2019-03-30T03:48:15.010Z,21.2
2019-03-30T03:49:03.775Z,21.2
2019-03-30T03:49:55.482Z,21.2
2019-03-30T03:50:45.104Z,21.2
2019-03-30T03:51:35.600Z,21.2
2019-03-30T03:56:36.001Z,21.1
2019-03-30T03:58:16.121Z,21.1
2019-03-30T04:00:45.702Z,21.2
2019-03-30T04:01:36.279Z,21.2
2019-03-30T04:02:25.566Z,21.2
2019-03-30T04:03:16.461Z,21.2
2019-03-30T04:04:05.996Z,21.3
2019-03-30T04:04:56.278Z,21.3
2019-03-30T04:05:46.684Z,21.3
2019-03-30T04:06:36.635Z,21.3
2019-03-30T04:07:26.579Z,21.3
2019-03-30T04:08:16.583Z,21.3
2019-03-30T04:09:06.599Z,21.3
2019-03-30T04:09:55.906Z,21.3
2019-03-30T04:10:46.688Z,21.3
2019-03-30T04:11:36.016Z,21.3
2019-03-30T04:12:26.907Z,21.3
2019-03-30T04:13:16.298Z,21.3
2019-03-30T04:14:07.235Z,21.2
2019-03-30T04:14:56.702Z,21.2
2019-03-30T04:15:47.324Z,21.2
2019-03-30T04:16:37.071Z,21.2
2019-03-30T04:17:26.867Z,21.2
2019-03-30T04:18:17.101Z,21.2
2019-03-30T04:19:07.647Z,21.2
2019-03-30T04:29:58.392Z,21.2
2019-03-30T04:30:47.658Z,21.2
2019-03-30T04:31:38.493Z,21.2
2019-03-30T04:32:28.092Z,21.3
2019-03-30T04:33:18.460Z,21.3
2019-03-30T04:34:08.027Z,21.3
2019-03-30T04:34:57.380Z,21.3
2019-03-30T04:35:47.955Z,21.3
2019-03-30T04:36:37.393Z,21.3
2019-03-30T04:37:27.987Z,21.3
2019-03-30T04:38:21.577Z,21.3
2019-03-30T04:39:08.439Z,21.3
2019-03-30T04:39:58.449Z,21.3
2019-03-30T04:40:48.544Z,21.3
2019-03-30T04:41:38.805Z,21.3
2019-03-30T04:42:28.860Z,21.3
2019-03-30T04:43:19.023Z,21.3
2019-03-30T04:44:08.827Z,21.2
2019-03-30T04:44:59.402Z,21.2
2019-03-30T04:45:49.604Z,21.2
2019-03-30T04:46:39.222Z,21.2
2019-03-30T04:47:29.345Z,21.2
2019-03-30T04:48:19.724Z,21.2
2019-03-30T04:49:09.426Z,21.2
2019-03-30T04:59:09.580Z,21.2
2019-03-30T05:00:00.269Z,21.2
2019-03-30T05:00:50.213Z,21.2
2019-03-30T05:01:40.698Z,21.3
2019-03-30T05:02:30.015Z,21.3
2019-03-30T05:03:20.366Z,21.3
2019-03-30T05:04:10.235Z,21.3
2019-03-30T05:05:00.963Z,21.3
2019-03-30T05:05:50.562Z,21.3
2019-03-30T05:06:40.906Z,21.3
2019-03-30T05:07:30.673Z,21.3
2019-03-30T05:08:20.718Z,21.3
2019-03-30T05:09:11.068Z,21.3
2019-03-30T05:10:01.346Z,21.3
2019-03-30T05:10:50.439Z,21.3
2019-03-30T05:11:41.256Z,21.3
2019-03-30T05:12:31.028Z,21.3
2019-03-30T05:13:21.095Z,21.3
2019-03-30T05:14:11.485Z,21.3
2019-03-30T05:15:01.462Z,21.2
2019-03-30T05:15:50.700Z,21.2
2019-03-30T05:16:41.379Z,21.2
2019-03-30T05:17:51.097Z,21.2
2019-03-30T05:18:20.893Z,21.2
2019-03-30T05:19:11.182Z,21.2
2019-03-30T05:20:01.830Z,21.2
2019-03-30T05:20:51.869Z,21.2
2019-03-30T05:21:41.663Z,21.2
2019-03-30T05:26:42.292Z,21.2
2019-03-30T05:27:32.404Z,21.2
2019-03-30T05:28:22.259Z,21.2
2019-03-30T05:29:11.697Z,21.3
2019-03-30T05:30:02.857Z,21.3
2019-03-30T05:30:51.829Z,21.3
2019-03-30T05:31:42.175Z,21.3
2019-03-30T05:32:32.686Z,21.3
2019-03-30T05:33:22.772Z,21.3
2019-03-30T05:34:12.568Z,21.4
2019-03-30T05:35:02.699Z,21.4
2019-03-30T05:35:52.954Z,21.3
2019-03-30T05:36:42.254Z,21.4
2019-03-30T05:37:33.131Z,21.4
2019-03-30T05:38:23.251Z,21.4
2019-03-30T05:39:12.917Z,21.3
2019-03-30T05:40:03.259Z,21.3
2019-03-30T05:40:53.113Z,21.3
2019-03-30T05:41:43.138Z,21.3
2019-03-30T05:42:33.443Z,21.3
2019-03-30T05:43:23.264Z,21.3
2019-03-30T05:44:13.041Z,21.3
2019-03-30T05:45:04.784Z,21.3
2019-03-30T05:45:52.579Z,21.3
2019-03-30T05:46:42.886Z,21.3
2019-03-30T05:47:33.506Z,21.3
2019-03-30T05:48:23.908Z,21.3
2019-03-30T05:49:13.367Z,21.3
2019-03-30T05:50:04.208Z,21.3
2019-03-30T05:50:53.736Z,21.3
2019-03-30T05:51:43.555Z,21.3
2019-03-30T05:52:37.173Z,21.3
2019-03-30T05:53:23.454Z,21.3
2019-03-30T05:54:14.253Z,21.3
2019-03-30T05:55:04.357Z,21.3
2019-03-30T05:55:54.122Z,21.3
2019-03-30T05:56:44.157Z,21.3
2019-03-30T05:57:33.480Z,21.3
2019-03-30T05:58:24.388Z,21.3
2019-03-30T05:59:14.365Z,21.3
2019-03-30T06:00:03.822Z,21.4
2019-03-30T06:00:54.540Z,21.4
2019-03-30T06:01:43.784Z,21.4
2019-03-30T06:02:34.593Z,21.4
2019-03-30T06:05:22.200Z,21.4
2019-03-30T06:06:11.977Z,21.4
2019-03-30T06:07:02.169Z,21.4
2019-03-30T06:07:52.289Z,21.4
2019-03-30T06:08:42.507Z,21.4
2019-03-30T06:09:31.679Z,21.5
2019-03-30T06:10:22.300Z,21.4
2019-03-30T06:11:11.509Z,21.4
2019-03-30T06:12:02.686Z,21.4
2019-03-30T06:12:52.202Z,21.4
2019-03-30T06:13:42.547Z,21.4
2019-03-30T06:14:32.680Z,21.4
2019-03-30T06:15:22.436Z,21.4
2019-03-30T06:16:12.976Z,21.4
2019-03-30T06:17:02.772Z,21.4
2019-03-30T06:17:52.534Z,21.4
2019-03-30T06:18:42.332Z,21.4
2019-03-30T06:19:33.006Z,21.4
2019-03-30T06:20:22.164Z,21.4
2019-03-30T06:21:13.071Z,21.4
2019-03-30T06:22:03.161Z,21.4
2019-03-30T06:22:52.903Z,21.4
2019-03-30T06:23:43.324Z,21.4
2019-03-30T06:24:32.465Z,21.4
2019-03-30T06:25:23.569Z,21.4
2019-03-30T06:26:13.546Z,21.4
2019-03-30T06:27:03.204Z,21.4
2019-03-30T06:27:53.246Z,21.4
2019-03-30T06:28:43.603Z,21.4
2019-03-30T06:29:33.088Z,21.5
2019-03-30T06:30:23.830Z,21.5
2019-03-30T06:31:13.773Z,21.4
2019-03-30T06:32:03.893Z,21.4
2019-03-30T06:32:53.885Z,21.4
2019-03-30T06:33:43.950Z,21.4
2019-03-30T06:34:34.338Z,21.4
2019-03-30T06:35:24.460Z,21.3
2019-03-30T06:36:14.479Z,21.3
2019-03-30T06:37:03.933Z,21.3
2019-03-30T06:37:54.257Z,21.3
2019-03-30T06:38:44.583Z,21.3
2019-03-30T06:39:37.953Z,21.3
2019-03-30T06:40:24.721Z,21.3
2019-03-30T06:42:04.545Z,21.1
2019-03-30T06:42:54.638Z,20.9
2019-03-30T06:43:43.913Z,20.9
2019-03-30T06:44:33.340Z,20.8
2019-03-30T06:45:24.845Z,20.7
2019-03-30T06:46:14.832Z,20.6
2019-03-30T06:47:05.210Z,20.6
2019-03-30T06:47:55.271Z,20.5
2019-03-30T06:48:45.317Z,20.4
2019-03-30T06:49:35.367Z,20.4
2019-03-30T06:50:25.405Z,20.4
2019-03-30T06:51:15.472Z,20.3
2019-03-30T06:52:05.253Z,20.3
2019-03-30T06:53:05.759Z,20.3
2019-03-30T06:53:45.647Z,20.3
2019-03-30T06:54:35.725Z,20.3
2019-03-30T06:55:25.529Z,20.4
2019-03-30T06:56:15.629Z,20.4
2019-03-30T06:57:05.896Z,20.5
2019-03-30T06:57:55.671Z,20.5
2019-03-30T06:58:45.762Z,20.4
2019-03-30T06:59:36.104Z,20.3
2019-03-30T07:00:25.893Z,20.3
2019-03-30T07:01:15.169Z,20.3
2019-03-30T07:02:06.064Z,20.3
2019-03-30T07:02:56.056Z,20.4
2019-03-30T07:05:21.634Z,20.5
2019-03-30T07:06:11.999Z,20.6
2019-03-30T07:07:02.051Z,20.6
2019-03-30T07:07:52.376Z,20.7
2019-03-30T07:08:41.958Z,20.8
2019-03-30T07:09:32.446Z,20.8
2019-03-30T07:10:22.548Z,20.9
2019-03-30T07:11:27.883Z,20.9
2019-03-30T07:12:02.745Z,21
2019-03-30T07:12:52.408Z,21
2019-03-30T07:13:42.571Z,21.1
2019-03-30T07:14:32.806Z,21.1
2019-03-30T07:15:22.623Z,21.1
2019-03-30T07:22:03.165Z,21.2
2019-03-30T07:23:42.665Z,21.2
2019-03-30T07:24:33.498Z,21.2
2019-03-30T07:25:23.017Z,21.3
2019-03-30T07:26:13.648Z,21.3
2019-03-30T07:27:03.500Z,21.3
2019-03-30T07:27:53.796Z,21.3
2019-03-30T07:28:42.497Z,21.3
2019-03-30T07:29:33.897Z,21.4
2019-03-30T07:30:23.676Z,21.4
2019-03-30T07:31:13.697Z,21.4
2019-03-30T07:32:04.307Z,21.4
2019-03-30T07:32:54.078Z,21.4
2019-03-30T07:33:44.155Z,21.4
2019-03-30T07:34:34.249Z,21.4
2019-03-30T07:35:23.773Z,21.4
2019-03-30T07:36:13.784Z,21.4
2019-03-30T07:37:03.897Z,21.4
2019-03-30T07:37:54.160Z,21.4
2019-03-30T07:38:44.529Z,21.4
2019-03-30T07:39:34.634Z,21.4
2019-03-30T07:40:24.104Z,21.4
2019-03-30T07:41:13.947Z,21.4
2019-03-30T07:42:04.277Z,21.4
2019-03-30T07:42:54.354Z,21.4
2019-03-30T07:43:44.417Z,21.4
2019-03-30T07:44:33.872Z,21.4
2019-03-30T07:45:25.035Z,21.4
2019-03-30T07:46:14.811Z,21.4
2019-03-30T07:47:05.159Z,21.4
2019-03-30T07:47:54.651Z,21.3
2019-03-30T07:48:44.984Z,21.3
2019-03-30T07:49:35.321Z,21.3
2019-03-30T07:50:25.090Z,21.3
2019-03-30T07:51:15.407Z,21.3
2019-03-30T07:52:05.373Z,21.3
2019-03-30T07:52:55.301Z,21.3
2019-03-30T07:53:51.991Z,21.3
2019-03-30T07:54:35.421Z,21.3
2019-03-30T07:55:25.543Z,21.3
2019-03-30T07:56:16.432Z,21.3
2019-03-30T07:57:23.581Z,21.3
2019-03-30T07:57:56.575Z,21.4
2019-03-30T07:58:45.468Z,21.3
2019-03-30T07:59:35.879Z,21.4
2019-03-30T08:00:33.150Z,21.4
2019-03-30T08:01:15.715Z,21.4
2019-03-30T08:02:05.958Z,21.4
2019-03-30T08:03:10.933Z,21.4
2019-03-30T08:03:46.360Z,21.4
2019-03-30T08:04:36.583Z,21.4
2019-03-30T08:05:26.245Z,21.4
2019-03-30T08:06:16.308Z,21.4
2019-03-30T08:07:06.626Z,21.4
2019-03-30T08:07:56.113Z,21.4
2019-03-30T08:08:46.425Z,21.4
2019-03-30T08:09:40.067Z,21.4
2019-03-30T08:10:26.793Z,21.4
2019-03-30T08:11:19.882Z,21.4
2019-03-30T08:12:06.678Z,21.4
2019-03-30T08:12:56.783Z,21.4
2019-03-30T08:13:46.831Z,21.4
2019-03-30T08:14:36.280Z,21.4
2019-03-30T08:15:26.935Z,21.4
2019-03-30T08:16:16.795Z,21.4
2019-03-30T08:17:07.284Z,21.4
2019-03-30T08:17:57.412Z,21.3
2019-03-30T08:18:47.417Z,21.3
2019-03-30T08:19:36.460Z,21.3
2019-03-30T08:20:27.805Z,21.3
2019-03-30T08:21:17.320Z,21.3
2019-03-30T08:22:06.839Z,21.3
2019-03-30T08:22:57.736Z,21.3
2019-03-30T08:23:48.214Z,21.3
2019-03-30T08:24:37.587Z,21.2
2019-03-30T08:25:27.653Z,21.3
2019-03-30T08:26:17.952Z,21.2
2019-03-30T08:27:08.142Z,21.2
2019-03-30T08:27:58.176Z,21.3
2019-03-30T08:28:48.204Z,21.3
2019-03-30T08:29:37.931Z,21.3
2019-03-30T08:30:27.767Z,21.3
2019-03-30T08:31:18.088Z,21.3
2019-03-30T08:32:08.119Z,21.3
2019-03-30T08:32:57.974Z,21.3
2019-03-30T08:33:48.024Z,21.3
2019-03-30T08:34:38.564Z,21.4
2019-03-30T08:35:28.671Z,21.4
2019-03-30T08:36:18.684Z,21.4
2019-03-30T08:37:08.427Z,21.4
2019-03-30T08:37:58.499Z,21.4
2019-03-30T08:38:48.632Z,21.4
2019-03-30T08:39:38.371Z,21.4
2019-03-30T08:40:28.781Z,21.4
2019-03-30T08:41:19.412Z,21.3
2019-03-30T08:42:09.096Z,21.3
2019-03-30T08:42:59.218Z,21.3
2019-03-30T08:43:49.211Z,21.3
2019-03-30T08:44:38.866Z,21.3
2019-03-30T08:45:29.121Z,21.3
2019-03-30T08:46:19.214Z,21.3
2019-03-30T08:47:08.506Z,21.3
2019-03-30T08:47:59.241Z,21.3
2019-03-30T08:48:48.465Z,21.3
2019-03-30T08:49:39.326Z,21.3
2019-03-30T08:50:28.585Z,21.3
2019-03-30T08:51:23.193Z,21.3
2019-03-30T08:52:09.236Z,21.3
2019-03-30T08:52:59.623Z,21.3
2019-03-30T08:54:01.973Z,21.3
2019-03-30T08:54:39.985Z,21.2
2019-03-30T08:55:30.043Z,21.3
2019-03-30T08:56:19.853Z,21.2
2019-03-30T08:57:09.083Z,21.3
2019-03-30T08:57:59.963Z,21.3
2019-03-30T08:58:49.287Z,21.3
2019-03-30T08:59:40.335Z,21.2
2019-03-30T09:00:29.339Z,21.3
2019-03-30T09:01:34.300Z,21.3
2019-03-30T09:02:09.987Z,21.3
2019-03-30T09:03:00.687Z,21.3
2019-03-30T09:03:50.425Z,21.3
2019-03-30T09:04:40.430Z,21.3
2019-03-30T09:05:30.482Z,21.4
2019-03-30T09:06:20.820Z,21.4
2019-03-30T09:07:10.637Z,21.4
2019-03-30T09:07:59.935Z,21.3
2019-03-30T09:08:50.998Z,21.3
2019-03-30T09:09:40.044Z,21.3
2019-03-30T09:10:30.102Z,21.3
2019-03-30T09:11:20.900Z,21.3
2019-03-30T09:12:10.822Z,21.3
2019-03-30T09:13:00.814Z,21.3
2019-03-30T09:13:50.905Z,21.3
2019-03-30T09:14:41.430Z,21.3
2019-03-30T09:15:31.294Z,21.3
2019-03-30T09:16:21.391Z,21.3
2019-03-30T09:17:11.335Z,21.3
2019-03-30T09:18:01.685Z,21.3
2019-03-30T09:18:51.530Z,21.3
2019-03-30T09:19:41.044Z,21.3
2019-03-30T09:20:31.134Z,21.3
2019-03-30T09:21:20.976Z,21.3
2019-03-30T09:22:11.584Z,21.3
2019-03-30T09:23:02.094Z,21.3
2019-03-30T09:23:51.320Z,21.3
2019-03-30T09:24:41.377Z,21.3
2019-03-30T09:25:32.209Z,21.3
2019-03-30T09:26:23.568Z,21.3
2019-03-30T09:27:11.756Z,21.3
2019-03-30T09:28:01.914Z,21.3
2019-03-30T09:28:51.966Z,21.3
2019-03-30T09:29:42.060Z,21.3
2019-03-30T09:30:32.340Z,21.3
2019-03-30T09:31:22.220Z,21.3
2019-03-30T09:32:21.478Z,21.3
2019-03-30T09:33:02.406Z,21.3
2019-03-30T09:33:51.547Z,21.3
2019-03-30T09:34:42.353Z,21.3
2019-03-30T09:35:32.280Z,21.3
2019-03-30T09:36:22.485Z,21.3
2019-03-30T09:37:11.806Z,21.3
2019-03-30T09:38:02.376Z,21.4
2019-03-30T09:38:52.261Z,21.4
2019-03-30T09:39:42.353Z,21.4
2019-03-30T09:40:31.503Z,21.4
2019-03-30T09:41:22.365Z,21.3
2019-03-30T09:42:12.440Z,21.4
2019-03-30T09:43:01.740Z,21.4
2019-03-30T09:43:53.058Z,21.3
2019-03-30T09:44:43.063Z,21.3
2019-03-30T09:45:32.988Z,21.3
2019-03-30T09:46:22.650Z,21.3
2019-03-30T09:47:12.763Z,21.3
2019-03-30T09:48:03.342Z,21.3
2019-03-30T09:48:52.615Z,21.3
2019-03-30T09:49:42.917Z,21.3
2019-03-30T09:50:33.266Z,21.3
2019-03-30T09:51:23.580Z,21.3
2019-03-30T09:52:12.312Z,21.3
2019-03-30T09:53:03.528Z,21.3
2019-03-30T09:53:53.202Z,21.3
2019-03-30T09:54:43.299Z,21.3
2019-03-30T09:55:34.414Z,21.3
2019-03-30T09:56:23.145Z,21.2
2019-03-30T09:57:14.121Z,21.3
2019-03-30T09:58:04.075Z,21.3
2019-03-30T09:58:53.372Z,21.3
2019-03-30T09:59:43.641Z,21.2
2019-03-30T10:00:34.328Z,21.2
2019-03-30T10:01:24.356Z,21.2
2019-03-30T10:02:14.082Z,21.2
2019-03-30T10:03:07.524Z,21.2
2019-03-30T10:03:54.016Z,21.2
2019-03-30T10:06:34.837Z,21.2
2019-03-30T10:07:11.428Z,21.3
2019-03-30T10:08:01.379Z,21.3
2019-03-30T10:08:51.701Z,21.3
2019-03-30T10:09:40.733Z,21.3
2019-03-30T10:10:30.811Z,21.3
2019-03-30T10:11:21.594Z,21.3
2019-03-30T10:12:11.106Z,21.3
2019-03-30T10:13:02.021Z,21.3
2019-03-30T10:13:51.816Z,21.3
2019-03-30T10:14:41.556Z,21.3
2019-03-30T10:15:31.903Z,21.3
2019-03-30T10:16:22.441Z,21.2
2019-03-30T10:17:12.503Z,21.2
2019-03-30T10:18:02.378Z,21.2
2019-03-30T10:18:51.866Z,21.2
2019-03-30T10:19:41.918Z,21.3
2019-03-30T10:20:33.010Z,21.2
2019-03-30T10:21:22.598Z,21.2
2019-03-30T10:22:12.166Z,21.2
2019-03-30T10:23:02.558Z,21.2
2019-03-30T10:23:52.783Z,21.3
2019-03-30T10:24:45.358Z,21.2
2019-03-30T10:25:32.853Z,21.2
2019-03-30T10:26:23.418Z,21.3
2019-03-30T10:27:13.100Z,21.2
2019-03-30T10:28:03.279Z,21.2
2019-03-30T10:28:53.458Z,21.3
2019-03-30T10:29:43.217Z,21.2
2019-03-30T10:30:33.475Z,21.2
2019-03-30T10:31:22.759Z,21.2
2019-03-30T10:32:13.656Z,21.2
2019-03-30T10:33:03.231Z,21.2
2019-03-30T10:33:53.445Z,21.2
2019-03-30T10:34:46.762Z,21.2
2019-03-30T10:35:33.635Z,21.2
2019-03-30T10:36:23.597Z,21.2
2019-03-30T10:37:14.329Z,21.2
2019-03-30T10:38:03.809Z,21.2
2019-03-30T10:38:53.787Z,21.3
2019-03-30T10:39:43.647Z,21.3
2019-03-30T10:40:34.512Z,21.3
2019-03-30T10:41:24.247Z,21.3
2019-03-30T10:42:13.792Z,21.3
2019-03-30T10:43:04.666Z,21.3
2019-03-30T10:43:54.439Z,21.3
2019-03-30T10:44:44.242Z,21.3
2019-03-30T10:45:34.014Z,21.3
2019-03-30T10:46:24.299Z,21.3
2019-03-30T10:47:14.967Z,21.3
2019-03-30T10:48:04.444Z,21.3
2019-03-30T10:48:54.858Z,21.3
2019-03-30T10:49:44.854Z,21.3
2019-03-30T10:50:34.649Z,21.3
2019-03-30T10:51:25.638Z,21.3
2019-03-30T10:52:15.096Z,21.3
2019-03-30T10:53:05.424Z,21.3
2019-03-30T10:53:55.466Z,21.3
2019-03-30T10:55:00.066Z,21.3
2019-03-30T10:55:35.009Z,21.3
2019-03-30T10:56:25.136Z,21.3
2019-03-30T10:57:15.139Z,21.3
2019-03-30T10:58:07.691Z,21.3
2019-03-30T10:58:55.223Z,21.3
2019-03-30T10:59:45.920Z,21.3
2019-03-30T11:00:35.374Z,21.3
2019-03-30T11:01:25.662Z,21.3
2019-03-30T11:02:15.845Z,21.3
2019-03-30T11:03:06.068Z,21.2
2019-03-30T11:03:56.191Z,21.2
2019-03-30T11:04:45.169Z,21.2
2019-03-30T11:05:35.777Z,21.2
2019-03-30T11:06:26.118Z,21.2
2019-03-30T11:07:15.717Z,21.2
2019-03-30T11:08:06.456Z,21.2
2019-03-30T11:08:56.240Z,21.2
2019-03-30T11:09:49.323Z,21.3
2019-03-30T11:10:36.375Z,21.3
2019-03-30T11:11:26.906Z,21.2
2019-03-30T11:12:16.768Z,21.3
2019-03-30T11:13:06.575Z,21.3
2019-03-30T11:13:56.582Z,21.3
2019-03-30T11:14:47.035Z,21.3
2019-03-30T11:15:40.332Z,21.3
2019-03-30T11:16:26.772Z,21.3
2019-03-30T11:17:20.331Z,21.3
2019-03-30T11:18:06.910Z,21.3
2019-03-30T11:18:57.232Z,21.3
2019-03-30T11:19:46.732Z,21.3
2019-03-30T11:20:36.800Z,21.3
2019-03-30T11:21:27.395Z,21.3
2019-03-30T11:22:17.280Z,21.3
2019-03-30T11:23:07.654Z,21.3
2019-03-30T11:23:56.757Z,21.3
2019-03-30T11:24:47.379Z,21.3
2019-03-30T11:25:37.449Z,21.2
2019-03-30T11:26:27.759Z,21.2
2019-03-30T11:27:17.556Z,21.1
2019-03-30T11:28:07.992Z,21
2019-03-30T11:28:57.486Z,21
2019-03-30T11:29:46.784Z,21
2019-03-30T11:30:37.649Z,20.9
2019-03-30T11:31:28.236Z,20.9
2019-03-30T11:32:18.219Z,21
2019-03-30T11:33:07.576Z,21
2019-03-30T11:33:58.088Z,21
2019-03-30T11:34:47.886Z,21
2019-03-30T11:35:38.488Z,21
2019-03-30T11:36:28.483Z,21
2019-03-30T11:37:18.283Z,21
2019-03-30T11:38:08.656Z,21.1
2019-03-30T11:38:58.386Z,21.1
2019-03-30T11:39:48.801Z,21.1
2019-03-30T11:40:38.765Z,21.1
2019-03-30T11:43:08.999Z,21.2
2019-03-30T11:43:59.053Z,21.2
2019-03-30T11:44:49.322Z,21.3
2019-03-30T11:45:39.161Z,21.3
2019-03-30T11:46:28.953Z,21.3
2019-03-30T11:47:19.361Z,21.3
2019-03-30T11:48:08.840Z,21.3
2019-03-30T11:48:58.198Z,21.3
2019-03-30T11:49:49.315Z,21.3
2019-03-30T11:50:39.055Z,21.3
2019-03-30T11:51:29.625Z,21.3
2019-03-30T11:52:19.331Z,21.3
2019-03-30T11:53:09.797Z,21.3
2019-03-30T11:53:59.458Z,21.3
2019-03-30T11:54:49.564Z,21.3
2019-03-30T11:55:39.395Z,21.3
2019-03-30T11:56:29.463Z,21.3
2019-03-30T11:57:19.564Z,21.3
2019-03-30T11:58:09.584Z,21.3
2019-03-30T11:58:59.637Z,21.3
2019-03-30T11:59:49.415Z,21.3
2019-03-30T12:00:39.231Z,21.3
2019-03-30T12:01:29.618Z,21.3
2019-03-30T12:02:33.987Z,21.3
2019-03-30T12:03:09.932Z,21.2
2019-03-30T12:03:59.149Z,21.2
2019-03-30T12:06:21.321Z,21.2
2019-03-30T12:07:11.722Z,21.2
2019-03-30T12:08:01.576Z,21.2
2019-03-30T12:08:52.605Z,21.2
2019-03-30T12:10:11.494Z,21.2
2019-03-30T12:10:45.759Z,21.2
2019-03-30T12:11:22.076Z,21.2
2019-03-30T12:13:17.354Z,21.2
2019-03-30T12:13:52.677Z,21.2
2019-03-30T12:14:42.609Z,21.3
2019-03-30T12:15:33.733Z,21.3
2019-03-30T12:16:36.929Z,21.3
2019-03-30T12:17:12.922Z,21.3
2019-03-30T12:18:03.458Z,21.3
2019-03-30T12:19:11.919Z,21.3
2019-03-30T12:19:42.881Z,21.3
2019-03-30T12:20:32.931Z,21.3
2019-03-30T12:21:22.441Z,21.3
2019-03-30T12:22:12.469Z,21.3
2019-03-30T12:23:03.195Z,21.3
2019-03-30T12:23:52.714Z,21.3
2019-03-30T12:24:42.123Z,21.3
2019-03-30T12:25:43.103Z,21.3
2019-03-30T12:26:23.063Z,21.3
2019-03-30T12:27:13.166Z,21.3
2019-03-30T12:28:02.090Z,21.3
2019-03-30T12:28:53.280Z,21.3
2019-03-30T12:29:47.248Z,21.3
2019-03-30T12:30:33.034Z,21.3
2019-03-30T12:31:23.430Z,21.2
2019-03-30T12:32:13.780Z,21.2
2019-03-30T12:33:03.574Z,21.2
2019-03-30T12:37:14.109Z,21.2
2019-03-30T12:42:14.287Z,21.1
2019-03-30T12:43:04.344Z,21.1
2019-03-30T12:43:54.217Z,21.1
2019-03-30T12:44:43.873Z,21.1
2019-03-30T12:48:08.636Z,21.2
2019-03-30T12:49:09.222Z,21.2
2019-03-30T12:49:47.645Z,21.3
2019-03-30T12:50:35.122Z,21.3
2019-03-30T14:07:20.858Z,21.1
2019-03-30T14:08:11.398Z,21.1
2019-03-30T14:09:01.346Z,21.1
2019-03-30T14:09:51.277Z,21.1
2019-03-30T14:23:12.277Z,21.1
2019-03-30T14:25:42.662Z,21.2
2019-03-30T14:26:38.346Z,21.2
2019-03-30T14:27:22.229Z,21.2
2019-03-30T14:28:12.618Z,21.2
2019-03-30T14:29:02.644Z,21.2
2019-03-30T14:29:56.452Z,21.3
2019-03-30T14:30:42.773Z,21.3
2019-03-30T14:31:33.090Z,21.3
2019-03-30T14:32:23.151Z,21.3
2019-03-30T14:33:12.946Z,21.3
2019-03-30T14:34:02.741Z,21.3
2019-03-30T14:34:53.352Z,21.3
2019-03-30T14:35:46.679Z,21.3
2019-03-30T14:36:32.638Z,21.3
2019-03-30T14:37:22.679Z,21.3
2019-03-30T14:38:13.027Z,21.3
2019-03-30T14:39:03.712Z,21.3
2019-03-30T14:39:53.163Z,21.2
2019-03-30T14:40:43.500Z,21.3
2019-03-30T14:41:33.560Z,21.3
2019-03-30T14:42:23.626Z,21.2
2019-03-30T14:43:13.393Z,21.2
2019-03-30T14:44:03.737Z,21.2
2019-03-30T14:45:44.167Z,20.9
2019-03-30T14:46:34.247Z,20.8
2019-03-30T14:47:23.975Z,20.6
2019-03-30T14:48:14.332Z,20.4
2019-03-30T14:49:03.815Z,20.3
2019-03-30T14:49:54.477Z,20.1
2019-03-30T14:50:44.212Z,19.9
2019-03-30T14:51:34.282Z,19.8
2019-03-30T14:52:24.685Z,19.7
2019-03-30T14:53:15.670Z,19.6
2019-03-30T14:54:04.837Z,19.5
2019-03-30T14:55:00.003Z,19.3
2019-03-30T14:55:47.025Z,19.3
2019-03-30T14:56:50.219Z,19.3
2019-03-30T14:57:25.227Z,19.3
2019-03-30T14:58:15.642Z,19.3
2019-03-30T14:59:20.153Z,19.3
2019-03-30T14:59:55.654Z,19.3
2019-03-30T15:00:46.904Z,19.3
2019-03-30T15:01:36.364Z,19.3
2019-03-30T15:02:25.542Z,19.3
2019-03-30T15:03:16.056Z,19.4
2019-03-30T15:04:05.713Z,19.5
2019-03-30T15:04:55.479Z,19.6
2019-03-30T15:05:45.596Z,19.6
2019-03-30T15:06:35.946Z,19.6
2019-03-30T15:07:25.136Z,19.6
2019-03-30T15:08:15.707Z,19.5
2019-03-30T15:09:06.044Z,19.4
2019-03-30T15:09:56.199Z,19.4
2019-03-30T15:10:45.898Z,19.4
2019-03-30T15:11:39.964Z,19.4
2019-03-30T15:12:26.574Z,19.4
2019-03-30T15:13:15.978Z,19.3
2019-03-30T15:14:05.953Z,19.3
2019-03-30T15:14:56.276Z,19.3
2019-03-30T15:15:45.891Z,19.4
2019-03-30T15:16:36.181Z,19.4
2019-03-30T15:17:26.473Z,19.4
2019-03-30T15:18:15.960Z,19.4
2019-03-30T15:19:06.138Z,19.4
2019-03-30T15:19:56.403Z,19.3
2019-03-30T15:20:46.510Z,19.3
2019-03-30T15:21:36.498Z,19.3
2019-03-30T15:22:26.835Z,19.3
2019-03-30T15:23:16.805Z,19.3
2019-03-30T15:24:07.283Z,19.3
2019-03-30T15:24:56.925Z,19.3
2019-03-30T15:25:47.270Z,19.2
2019-03-30T15:26:37.647Z,19.2
2019-03-30T15:27:27.645Z,19.2
2019-03-30T15:28:17.329Z,19.2
2019-03-30T15:29:06.972Z,19.2
2019-03-30T15:29:57.862Z,19.1
2019-03-30T15:30:47.630Z,19.1
2019-03-30T15:31:37.436Z,19.1
2019-03-30T15:32:28.035Z,19
2019-03-30T15:33:17.869Z,18.9
2019-03-30T15:34:08.182Z,18.9
2019-03-30T15:35:01.828Z,18.9
2019-03-30T15:35:48.280Z,18.9
2019-03-30T15:36:37.847Z,18.9
2019-03-30T15:37:27.600Z,18.9
2019-03-30T15:38:18.185Z,18.9
2019-03-30T15:39:08.512Z,18.9
2019-03-30T15:39:58.572Z,18.9
2019-03-30T15:40:48.119Z,18.9
2019-03-30T15:41:38.222Z,19
2019-03-30T15:42:28.554Z,19
2019-03-30T15:43:18.577Z,19
2019-03-30T15:44:08.907Z,19
2019-03-30T15:44:58.475Z,19.1
2019-03-30T15:45:49.004Z,19.1
2019-03-30T15:46:38.491Z,19.1
2019-03-30T15:47:28.854Z,19
2019-03-30T15:48:19.186Z,19
2019-03-30T15:49:12.554Z,19
2019-03-30T15:49:59.054Z,18.9
2019-03-30T15:50:48.846Z,19
2019-03-30T15:51:42.869Z,19
2019-03-30T15:52:29.488Z,18.9
2019-03-30T15:53:19.559Z,19
2019-03-30T15:54:09.336Z,19
2019-03-30T15:54:59.481Z,19
2019-03-30T15:55:49.456Z,18.9
2019-03-30T15:56:39.822Z,18.9
2019-03-30T15:57:32.376Z,18.9
2019-03-30T15:58:19.686Z,18.9
2019-03-30T15:59:09.483Z,18.9
2019-03-30T15:59:59.761Z,18.9
2019-03-30T16:00:49.644Z,18.9
2019-03-30T16:01:40.173Z,18.9
2019-03-30T16:02:30.208Z,18.9
2019-03-30T16:03:20.296Z,18.8
2019-03-30T16:04:10.366Z,18.8
2019-03-30T16:05:00.447Z,18.6
2019-03-30T16:07:21.263Z,18.5
2019-03-30T16:08:11.496Z,18.6
2019-03-30T16:09:00.586Z,18.6
2019-03-30T16:09:51.663Z,18.6
2019-03-30T16:10:42.070Z,18.5
2019-03-30T16:11:31.765Z,18.4
2019-03-30T16:12:22.155Z,18.4
2019-03-30T16:13:15.593Z,18.4
2019-03-30T16:14:02.322Z,18.4
2019-03-30T16:14:52.294Z,18.4
2019-03-30T16:15:45.763Z,18.4
2019-03-30T16:16:32.407Z,18.4
2019-03-30T16:17:22.563Z,18.4
2019-03-30T16:18:12.547Z,18.4
2019-03-30T16:19:02.330Z,18.4
2019-03-30T16:19:51.239Z,18.4
2019-03-30T16:20:42.438Z,18.4
2019-03-30T16:21:32.835Z,18.4
2019-03-30T16:22:22.845Z,18.3
2019-03-30T16:23:12.081Z,18.3
2019-03-30T16:24:02.950Z,18.2
2019-03-30T16:24:52.507Z,18.3
2019-03-30T16:25:42.867Z,18.3
2019-03-30T16:26:48.627Z,18.3
2019-03-30T16:27:40.272Z,18.3
2019-03-30T16:28:12.962Z,18.4
2019-03-30T16:29:03.122Z,18.4
2019-03-30T16:29:52.876Z,18.4
2019-03-30T16:30:43.167Z,18.6
2019-03-30T16:31:33.222Z,18.6
2019-03-30T16:32:23.407Z,18.8
2019-03-30T16:33:13.052Z,18.8
2019-03-30T16:34:03.722Z,18.9
2019-03-30T16:34:53.764Z,19
2019-03-30T16:35:43.223Z,19.1
2019-03-30T16:36:33.650Z,19.1
2019-03-30T16:37:23.614Z,19.2
2019-03-30T16:38:13.411Z,19.2
2019-03-30T16:39:03.590Z,19.3
2019-03-30T16:39:54.111Z,19.3
2019-03-30T16:40:43.915Z,19.4
2019-03-30T16:41:33.376Z,19.4
2019-03-30T16:42:24.101Z,19.4
2019-03-30T16:43:15.891Z,19.4
2019-03-30T16:44:03.848Z,19.4
2019-03-30T16:44:54.440Z,19.5
2019-03-30T16:45:44.222Z,19.5
2019-03-30T16:46:34.604Z,19.6
2019-03-30T16:47:24.386Z,19.6
2019-03-30T16:48:18.401Z,19.6
2019-03-30T16:49:04.763Z,19.6
2019-03-30T16:49:53.761Z,19.6
2019-03-30T16:50:44.878Z,19.6
2019-03-30T16:51:34.758Z,19.6
2019-03-30T16:52:24.429Z,19.6
2019-03-30T16:53:15.143Z,19.6
2019-03-30T16:54:04.942Z,19.7